Nearby METAR Reports


KSYR - Syracuse, New York, USA
Distance from station: SE 5mi, 8km
Updated: Thu, 18-Oct-2018 3:54pm EDT
Mostly cloudy
Mostly cloudy
 Wind from W
Wind: W 16 mph , 26 km/h, Gust: 22 mph , 35 km/h
Temperature: 43°F , 6°C
Wind Chill: 35°F , 2°C
Dew Point: 27°F , -3°C
Humidity: 53%
Barometer: 30.36 inHg , 1028.1 hPa
Clouds: Mostly cloudy
Visibility: 10 miles , 16 km
Cloud details: Mostly cloudy 4600 ft
2018/10/18 19:54 KSYR 181954Z 27014G19KT 10SM BKN046 06/M03 A3036 RMK AO2 SLP281 T00611033
KFZY - Fulton, New York, USA
Distance from station: NW 17mi, 27km
Updated: Thu, 18-Oct-2018 3:54pm EDT
Overcast
Overcast
 Wind from W
Wind: W 12 mph , 19 km/h, Gust: 21 mph , 33 km/h
Temperature: 41°F , 5°C
Wind Chill: 34°F , 1°C
Dew Point: 25°F , -4°C
Humidity: 53%
Barometer: 30.36 inHg , 1028.1 hPa
Clouds: Overcast
Visibility: 10 miles , 16 km
Cloud details: Mostly cloudy 3500 ft
Overcast 4200 ft
2018/10/18 19:54 KFZY 181954Z AUTO 28010G18KT 10SM BKN035 OVC042 05/M04 A3036 RMK AO2 PK WND 27027/1919 SLP285 T00501039
 
KRME - Rome/Griffiss Af, New York, USA
Distance from station: E 39mi, 62km
Updated: Thu, 18-Oct-2018 3:53pm EDT
Clear
Clear
 Wind from WNW
Wind: WNW 20 mph , 31 km/h, Gust: 28 mph , 44 km/h
Temperature: 39°F , 4°C
Wind Chill: 29°F , -2°C
Dew Point: 21°F , -6°C
Humidity: 48%
Barometer: 30.35 inHg , 1027.8 hPa
Clouds: Clear
Visibility: 10 miles , 16 km
2018/10/18 19:53 KRME 181953Z 30017G24KT 10SM CLR 04/M06 A3035 RMK AO2 PK WND 31027/1919 SLP281 T00441056
KITH - Ithaca/Tompkins, New York, USA
Distance from station: SSW 51mi, 82km
Updated: Thu, 18-Oct-2018 3:56pm EDT
Partly cloudy
Partly cloudy
 Wind from WNW
Wind: WNW 12 mph , 19 km/h
Temperature: 41°F , 5°C
Wind Chill: 34°F , 1°C
Dew Point: 27°F , -3°C
Humidity: 57%
Barometer: 30.36 inHg , 1028.1 hPa
Clouds: Partly cloudy
Visibility: 10 miles , 16 km
Cloud details: Partly cloudy 4300 ft
2018/10/18 19:56 KITH 181956Z 29010KT 10SM SCT043 05/M03 A3036 RMK AO2 SLP290 T00501033
 
KART - Watertown, New York, USA
Distance from station: N 56mi, 91km
Updated: Thu, 18-Oct-2018 3:56pm EDT
Mostly cloudy
Mostly cloudy
 Wind from WSW
Wind: WSW 15 mph , 24 km/h, Gust: 25 mph , 41 km/h
Temperature: 41°F , 5°C
Wind Chill: 33°F , 1°C
Dew Point: 27°F , -3°C
Humidity: 57%
Barometer: 30.33 inHg , 1027.1 hPa
Clouds: Mostly cloudy
Visibility: 10 miles , 16 km
Cloud details: Mostly cloudy 4000 ft
Mostly cloudy 5000 ft
2018/10/18 19:56 KART 181956Z AUTO 25013G22KT 10SM BKN040 BKN050 05/M03 A3033 RMK AO2 SLP274 T00501033
KPEO - Penn Yan, New York, USA
Distance from station: SW 58mi, 93km
Updated: Thu, 18-Oct-2018 3:53pm EDT
Mostly cloudy
Mostly cloudy
 Wind from W
Wind: W 9 mph , 15 km/h, Gust: 20 mph , 31 km/h
Temperature: 41°F , 5°C
Wind Chill: 35°F , 2°C
Dew Point: 25°F , -4°C
Humidity: 53%
Barometer: 30.37 inHg , 1028.4 hPa
Clouds: Mostly cloudy
Visibility: 10 miles , 16 km
Cloud details: Mostly cloudy 4200 ft
2018/10/18 19:53 KPEO 181953Z AUTO 27008G17KT 10SM BKN042 05/M04 A3037 RMK AO2 SLP293 T00501039
 
KGTB - Fort Drum/Wheele, New York, USA
Distance from station: NNE 64mi, 102km
Updated: Thu, 18-Oct-2018 3:56pm EDT
Few Clouds
Few Clouds
 Wind from W
Wind: W 16 mph , 26 km/h, Gust: 21 mph , 33 km/h
Temperature: 41°F , 5°C
Wind Chill: 33°F , 1°C
Dew Point: 21°F , -6°C
Humidity: 45%
Barometer: 30.29 inHg , 1025.7 hPa
Clouds: Few Clouds
Visibility: 10 miles , 16 km
Cloud details: Few Clouds 4500 ft
2018/10/18 19:56 KGTB 181956Z AUTO 27014G18KT 10SM FEW045 05/M06 A3029 RMK AO2 SLP265 T00461060
CWQP - Point Petre (mar, Ontario, Canada
Distance from station: NW 67mi, 107km
Updated: Thu, 18-Oct-2018 4:00pm EDT

 Wind from W
Wind: W 20 mph , 31 km/h, Gust: 30 mph , 48 km/h
Temperature: 41°F , 5°C
Wind Chill: 32°F , 0°C
Dew Point: 28°F , -2°C
Humidity: 61%
2018/10/18 20:00 CWQP 182000Z AUTO 27017G26KT 05/M02 RMK AO1 PK WND 27027/1947 SLP280 T00501020 56018
 
KBGM - Binghamton, New York, USA
Distance from station: S 67mi, 107km
Updated: Thu, 18-Oct-2018 3:53pm EDT
Few Clouds
Few Clouds
 Wind from WNW
Wind: WNW 12 mph , 19 km/h
Temperature: 39°F , 4°C
Wind Chill: 32°F , 0°C
Dew Point: 21°F , -6°C
Humidity: 48%
Barometer: 30.32 inHg , 1026.8 hPa
Clouds: Few Clouds
Visibility: 10 miles , 16 km
Cloud details: Few Clouds 4200 ft
2018/10/18 19:53 KBGM 181953Z 30010KT 10SM FEW042 04/M06 A3032 RMK AO2 SLP281 T00441056
CYGK - Kingston Arpt (m, Ontario, Canada
Distance from station: NNW 75mi, 121km
Updated: Thu, 18-Oct-2018 4:00pm EDT
Partly cloudy
Partly cloudy
 Wind from W
Wind: W 15 mph , 24 km/h, Gust: 25 mph , 41 km/h
Temperature: 43°F , 6°C
Wind Chill: 36°F , 2°C
Dew Point: 21°F , -6°C
Humidity: 42%
Barometer: 30.31 inHg , 1026.4 hPa
Clouds: Partly cloudy
Visibility: 15 miles , 24 km
Cloud details: Partly cloudy 5000 ft
2018/10/18 20:00 CYGK 182000Z 26013G22KT 240V300 15SM SCT050 06/M06 A3031 RMK SC3 SLP270